createdAt,value
2023-03-10T00:07:20.462Z,1.30
2023-03-10T00:12:22.935Z,1.30
2023-03-10T00:17:25.530Z,1.40
2023-03-10T00:22:28.115Z,1.40
2023-03-10T00:27:30.685Z,1.50
2023-03-10T00:32:37.216Z,1.50
2023-03-10T00:37:40.093Z,1.60
2023-03-10T00:47:47.527Z,1.60
2023-03-10T00:52:51.248Z,1.60
2023-03-10T00:57:53.890Z,1.70
2023-03-10T01:02:56.661Z,1.70
2023-03-10T01:08:00.336Z,1.70
2023-03-10T01:18:06.453Z,1.70
2023-03-10T01:23:29.477Z,1.70
2023-03-10T01:33:42.867Z,1.80
2023-03-10T01:38:46.185Z,1.70
2023-03-10T01:43:52.067Z,1.80
2023-03-10T01:49:04.803Z,1.80
2023-03-10T01:54:11.112Z,1.90
2023-03-10T02:04:27.314Z,1.80
2023-03-10T02:09:31.569Z,1.80
2023-03-10T02:19:39.736Z,1.80
2023-03-10T02:24:48.165Z,-0.30
2023-03-10T02:29:59.805Z,1.70
2023-03-10T02:35:07.298Z,1.70
2023-03-10T02:40:37.776Z,1.70
2023-03-10T02:46:03.560Z,1.70
2023-03-10T02:51:12.786Z,1.80
2023-03-10T02:56:16.633Z,1.80
2023-03-10T03:01:21.533Z,1.80
2023-03-10T03:11:27.954Z,1.90
2023-03-10T03:16:30.664Z,1.90
2023-03-10T03:21:37.892Z,1.80
2023-03-10T03:26:40.611Z,1.90
2023-03-10T03:47:16.581Z,1.80
2023-03-10T03:52:19.551Z,1.90
2023-03-10T03:57:22.380Z,1.80
2023-03-10T04:02:25.323Z,1.80
2023-03-10T04:07:29.280Z,1.90
2023-03-10T04:12:31.978Z,2.00
2023-03-10T04:22:38.663Z,2.10
2023-03-10T04:27:42.996Z,2.20
2023-03-10T04:32:48.982Z,2.20
2023-03-10T04:37:52.916Z,2.10
2023-03-10T04:48:00.043Z,2.10
2023-03-10T04:58:06.917Z,2.10
2023-03-10T05:03:10.736Z,2.20
2023-03-10T05:08:13.882Z,2.20
2023-03-10T05:13:16.526Z,2.30
2023-03-10T05:18:20.003Z,2.40
2023-03-10T05:23:24.138Z,2.40
2023-03-10T05:28:27.399Z,2.50
2023-03-10T05:33:31.482Z,2.60
2023-03-10T05:38:35.976Z,2.60
2023-03-10T05:43:41.134Z,2.90
2023-03-10T05:53:48.439Z,3.10
2023-03-10T05:58:56.107Z,3.10
2023-03-10T06:04:04.702Z,3.40
2023-03-10T06:09:07.367Z,3.40
2023-03-10T06:14:10.072Z,3.70
2023-03-10T06:19:12.773Z,3.70
2023-03-10T06:24:16.640Z,3.90
2023-03-10T06:29:19.189Z,4.00
2023-03-10T06:34:21.668Z,4.10
2023-03-10T06:39:26.660Z,4.10
2023-03-10T06:44:30.246Z,4.10
2023-03-10T06:49:33.303Z,4.30
2023-03-10T06:54:36.361Z,4.30
2023-03-10T06:59:38.873Z,4.40
2023-03-10T07:04:41.512Z,4.50
2023-03-10T07:09:44.173Z,4.70
2023-03-10T07:14:46.622Z,4.80
2023-03-10T07:19:49.167Z,5.10
2023-03-10T07:24:55.185Z,5.20
2023-03-10T07:29:57.802Z,7.90
2023-03-10T07:35:00.424Z,5.50
2023-03-10T07:40:03.056Z,5.50
2023-03-10T07:45:06.103Z,5.60
2023-03-10T07:50:18.796Z,5.80
2023-03-10T07:55:24.214Z,6.30
2023-03-10T08:00:27.989Z,6.50
2023-03-10T08:05:32.101Z,6.70
2023-03-10T08:10:35.483Z,7.20
2023-03-10T08:15:41.601Z,7.10
2023-03-10T08:20:44.158Z,7.10
2023-03-10T08:25:46.688Z,7.30
2023-03-10T08:31:03.643Z,7.50
2023-03-10T08:36:19.355Z,7.60
2023-03-10T08:41:28.551Z,7.90
2023-03-10T08:46:32.187Z,7.90
2023-03-10T08:51:34.996Z,7.80
2023-03-10T08:56:37.663Z,8.10
2023-03-10T09:01:41.046Z,8.40
2023-03-10T09:06:44.097Z,8.40
2023-03-10T09:11:46.789Z,8.60
2023-03-10T09:16:49.415Z,8.80
2023-03-10T09:21:52.043Z,9.10
2023-03-10T09:26:55.915Z,9.40
2023-03-10T09:31:58.642Z,9.90
2023-03-10T09:37:01.138Z,10.60
2023-03-10T09:42:13.302Z,10.80
2023-03-10T09:47:22.348Z,10.70
2023-03-10T09:52:45.055Z,10.90
2023-03-10T09:57:53.187Z,11.10
2023-03-10T10:03:07.320Z,11.20
2023-03-10T10:08:25.241Z,11.20
2023-03-10T10:13:30.672Z,11.50
2023-03-10T10:18:47.548Z,11.70
2023-03-10T10:23:52.985Z,11.80
2023-03-10T10:29:07.612Z,12.00
2023-03-10T10:34:23.409Z,12.10
2023-03-10T10:39:32.464Z,12.10
2023-03-10T10:44:42.343Z,12.20
2023-03-10T10:49:45.182Z,12.40
2023-03-10T10:54:59.207Z,12.50
2023-03-10T11:00:26.587Z,12.50
2023-03-10T11:05:38.716Z,12.30
2023-03-10T11:10:41.705Z,12.10
2023-03-10T11:16:09.265Z,12.10
2023-03-10T11:21:15.129Z,11.80
2023-03-10T11:26:52.136Z,11.90
2023-03-10T11:32:08.403Z,12.50
2023-03-10T11:37:42.947Z,12.90
2023-03-10T11:43:16.194Z,13.10
2023-03-10T11:48:18.868Z,13.20
2023-03-10T11:54:01.285Z,13.30
2023-03-10T11:59:24.733Z,11.00
2023-03-10T12:04:37.796Z,14.30
2023-03-10T12:09:42.472Z,14.30
2023-03-10T12:14:46.496Z,14.50
2023-03-10T12:20:14.467Z,14.40
2023-03-10T12:25:33.274Z,14.60
2023-03-10T12:30:58.304Z,14.10
2023-03-10T12:36:26.071Z,14.00
2023-03-10T12:41:44.165Z,13.90
2023-03-10T12:47:07.898Z,14.00
2023-03-10T12:52:19.085Z,14.50
2023-03-10T12:57:54.160Z,14.80
2023-03-10T13:03:08.030Z,14.60
2023-03-10T13:08:50.765Z,14.40
2023-03-10T13:14:11.171Z,14.00
2023-03-10T13:19:21.304Z,13.80
2023-03-10T13:24:23.878Z,14.10
2023-03-10T13:29:26.410Z,14.30
2023-03-10T13:34:31.691Z,14.30
2023-03-10T13:39:34.592Z,14.10
2023-03-10T13:44:42.207Z,13.80
2023-03-10T13:49:59.492Z,13.50
2023-03-10T13:55:16.934Z,13.50
2023-03-10T14:00:22.735Z,14.00
2023-03-10T14:05:43.652Z,14.20
2023-03-10T14:10:49.077Z,14.20
2023-03-10T14:15:55.526Z,15.00
2023-03-10T14:20:58.080Z,14.00
2023-03-10T14:26:00.765Z,14.00
2023-03-10T14:31:06.755Z,13.80
2023-03-10T14:36:12.232Z,13.80
2023-03-10T14:41:16.336Z,13.60
2023-03-10T14:46:19.471Z,13.50
2023-03-10T14:51:34.468Z,13.40
2023-03-10T14:56:38.385Z,13.50
2023-03-10T15:01:42.010Z,13.40
2023-03-10T15:06:44.951Z,13.40
2023-03-10T15:11:47.464Z,13.20
2023-03-10T15:16:49.953Z,13.00
2023-03-10T15:21:53.393Z,12.70
2023-03-10T15:26:55.993Z,12.40
2023-03-10T15:31:58.590Z,12.10
2023-03-10T15:37:01.244Z,11.80
2023-03-10T15:42:04.048Z,11.50
2023-03-10T15:47:07.097Z,11.40
2023-03-10T15:52:09.675Z,11.40
2023-03-10T15:57:12.771Z,11.30
2023-03-10T16:02:15.442Z,11.00
2023-03-10T16:07:18.306Z,10.80
2023-03-10T16:12:22.413Z,10.50
2023-03-10T16:17:25.044Z,10.60
2023-03-10T16:22:29.942Z,10.40
2023-03-10T16:27:32.465Z,10.20
2023-03-10T16:32:35.280Z,9.70
2023-03-10T16:37:37.988Z,9.30
2023-03-10T16:42:45.539Z,8.80
2023-03-10T16:47:49.282Z,8.20
2023-03-10T16:52:56.650Z,8.40
2023-03-10T16:57:59.171Z,8.40
2023-03-10T17:03:01.836Z,8.20
2023-03-10T17:08:06.091Z,8.30
2023-03-10T17:13:09.654Z,8.30
2023-03-10T17:18:12.399Z,8.30
2023-03-10T17:23:14.893Z,8.50
2023-03-10T17:28:17.433Z,8.50
2023-03-10T17:33:20.241Z,8.00
2023-03-10T17:38:25.060Z,8.00
2023-03-10T17:43:34.110Z,7.20
2023-03-10T17:48:37.114Z,7.10
2023-03-10T17:53:39.537Z,7.00
2023-03-10T17:58:43.545Z,7.00
2023-03-10T18:03:48.915Z,6.80
2023-03-10T18:08:54.846Z,6.80
2023-03-10T18:13:58.928Z,6.40
2023-03-10T18:19:02.240Z,6.30
2023-03-10T18:24:05.126Z,6.20
2023-03-10T18:34:11.151Z,6.30
2023-03-10T18:49:23.958Z,6.20
2023-03-10T18:54:28.140Z,6.30
2023-03-10T18:59:33.481Z,6.60
2023-03-10T19:04:37.224Z,6.50
2023-03-10T19:14:59.327Z,6.40
2023-03-10T19:20:08.173Z,6.50
2023-03-10T19:25:12.302Z,6.60
2023-03-10T19:30:18.123Z,6.60
2023-03-10T19:35:23.204Z,6.90
2023-03-10T19:40:26.646Z,7.00
2023-03-10T19:45:29.495Z,7.30
2023-03-10T19:50:34.991Z,7.50
2023-03-10T19:55:38.238Z,7.60
2023-03-10T20:00:40.760Z,7.50
2023-03-10T20:05:43.443Z,7.60
2023-03-10T20:10:46.218Z,7.70
2023-03-10T20:15:51.118Z,7.70
2023-03-10T20:20:53.890Z,7.90
2023-03-10T20:26:08.524Z,7.80
2023-03-10T20:31:19.978Z,7.90
2023-03-10T20:36:22.475Z,8.10
2023-03-10T20:41:25.488Z,8.20
2023-03-10T20:46:28.470Z,8.20
2023-03-10T20:51:31.273Z,8.30
2023-03-10T20:56:33.996Z,8.60
2023-03-10T21:06:42.426Z,8.20
2023-03-10T21:11:45.208Z,8.20
2023-03-10T21:16:50.875Z,8.20
2023-03-10T21:21:53.780Z,7.70
2023-03-10T21:26:56.315Z,7.40
2023-03-10T21:31:58.837Z,7.00
2023-03-10T21:42:04.804Z,7.20
2023-03-10T21:52:13.024Z,7.10
2023-03-10T21:57:15.750Z,7.00
2023-03-10T22:02:27.985Z,7.00
2023-03-10T22:07:30.681Z,6.80
2023-03-10T22:12:33.445Z,6.50
2023-03-10T22:17:35.996Z,6.20
2023-03-10T22:27:43.614Z,6.00
2023-03-10T22:32:46.680Z,6.00
2023-03-10T22:37:51.374Z,6.00
2023-03-10T22:42:54.628Z,5.90
2023-03-10T22:47:59.802Z,5.90
2023-03-10T22:53:04.231Z,5.90
2023-03-10T22:58:07.416Z,5.90
2023-03-10T23:03:14.192Z,5.70
2023-03-10T23:13:20.145Z,5.70
2023-03-10T23:33:31.500Z,5.40
2023-03-10T23:38:35.959Z,5.20
2023-03-10T23:48:41.403Z,4.90
